19:34
Airports
History
Links
Donate
Help keep this website running!
PayPal
Bitcoin
Information on this page is community maintained and may be outdated or inaccurate and is intended for reference only or PC simulator navigating.
Always use approved charts for navigating.
LEXJ
Santander
Santander (LEXJ)
Camargo, Cantabria, Spain (39609)
(C)
Lat/Lng:43° 25' 37.88" N / 3° 49' 13.7" W
43.427188 / -3.820471
Elevation:16'ft 5mMSL
ID / ICAO:LEXJ
Runways:1
Longest:(11-29) 2,317.4m 7,603ft Asphalt
Controlled:Yes
Distance To
Airport ID:
Airport Radio Frequencies
Ground: 121.7
Tower: 118.1
Approach: 118.37
Nearby VORs <50NM
Nearby NDBs
METARUpdated 05-27-17 19:30 GMT
Altimeter: 29.91
Visibility: 3.1 statute miles
Wind: 3 knots (290°)
Temp: 17°c 63°f
Humidity: 100.0%

METAR: LEXJ 271930Z 29003KT 260V320 5000 BR SCT005 OVC012 17/17 Q1013

(Powered by phpweather)
Runway 11 / 29
Dimensions:2317.4 x 45.1m 7603' x 148'ft
Surface:Asphalt
Edge Lights:Medium intensity
Runway 11 [A]Runway 29 [B]
Heading:110°TH 290°TH
Lat:
Lng:
43° 25' 50.82"N
3° 50' 2.12"W
43° 25' 24.93"N
3° 48' 25.27"W
TDZ:Yes, lighted
User Notes and Comments
Google Map
Nearby Airports
(C) Bilbao 46.2 NM
LEBB (WX) E 100°
(C) Vitoria 66.8 NM
LEVT (WX) SE 124°
(C) Burgos 74.6 NM
LEBG (WX) S 172°
4 Madrigalego Burgos 89.6 NM
LEMB S 177°
(U) LA MORGAL 100.9 NM
LEMR W 270°
(C) Logrono 101.1 NM
LERJ SE 131°
(C) San_Sebastian 102.0 NM
LESO (WX) E 92°
VFR Chart
Flight Planning at SkyVector.com